Tiempo atmosférico en la estación meteorológica de Capdepera, Illes Balears (57 m.)

Fecha
DESCASC
Temp. máxima en grados centígrados (hora)
DESCASC
Temp. mínima en grados centígrados (hora)
DESCASC
Temp. media en grados centígrados
DESCASC
Racha de viento máxima en m/sg (hora)
DESCASC
Velocidad máxima media en intervalos de 10 minutos(hora)
DESCASC
Precipitaciones diarias en mm
DESCASC
Precipitaciones de 00:00 a 06:00 en mm
DESCASC
Precipitaciones de 06:00 a 12:00 en mm
DESCASC
Precipitaciones de 12:00 a 18:00 en mm
DESCASC
Precipitaciones de 18:00 a 24:00 en mm
DESCASC
21-08-2017 28.7 (14:30) 22.9 (02:10) 25.8 10.83 (09:20) 9.17 (06:30) 0 0 0 0 0
20-08-2017 25.6 (12:30) 23.8 (07:20) 24.7 16.94 (08:20) 14.72 (11:10) 0 0 0 0 0
19-08-2017 28.1 (12:40) 23.8 (22:50) 25.9 13.89 (05:30) 11.94 (05:30) 0 0 0 0 0
18-08-2017 31 (13:20) 24 (04:30) 27.5 8.33 (17:10) 7.22 (17:00) 0 0 0 0 0
17-08-2017 30.9 (13:30) 24 (00:00) 27.4 7.22 (06:10) 5.56 (04:50) 0 0 0 0 0
16-08-2017 30 (13:30) 23.6 (00:00) 26.8 6.39 (13:10) 5.56 (14:50) 0 0 0 0 0
15-08-2017 29.2 (12:40) 23.6 (00:00) 26.4 10.56 (00:30) 8.89 (00:30) 0 0 0 0 0
14-08-2017 27.6 (16:20) 22.9 (06:00) 25.3 9.44 (20:40) 7.78 (16:00) 0 0 0 0 0
13-08-2017 29.1 (14:40) 21.5 (00:00) 25.3 9.72 (17:30) 8.06 (17:40) 0 0 0 0 0
12-08-2017 27.4 (14:30) 21.8 (00:00) 24.6 11.39 (00:20) 7.5 (00:30) 0 0 0 0 0
11-08-2017 26.9 (13:30) 19.6 (00:00) 23.3 12.22 (19:40) 7.5 (19:40) 0 0 0 0 0
10-08-2017 23.5 (15:50) 18.7 (00:00) 21.1 21.11 (02:40) 17.22 (03:40) 4 1.2 2.8 0 0
09-08-2017 28.2 (12:30) 22.9 (00:00) 25.6 16.67 (00:10) 13.89 (00:10) 0 0 0 0 0
08-08-2017 31.9 (13:30) 23.9 (00:00) 27.9 17.78 (20:40) 15.56 (20:40) 0 0 0 0 0
07-08-2017 30.8 (13:30) 24.7 (00:00) 27.8 12.78 (23:00) 8.06 (18:30) 0 0 0 0 0
06-08-2017 29.8 (14:00) 25.1 (00:00) 27.4 13.33 (09:10) 11.39 (09:10) 0 0 0 0 0
05-08-2017 33.1 (15:50) 25.4 (00:00) 29.2 7.5 (10:50) 6.11 (10:50) 0 0 0 0 0
04-08-2017 31.4 (14:10) 25.4 (00:00) 28.4 10 (15:40) 9.17 (16:30) 0 0 0 0 0
03-08-2017 36.3 (03:10) 26.3 (00:00) 31.3 18.06 (02:30) 13.33 (02:40) 0 0 0 0 0
02-08-2017 33 (14:30) 25.6 (00:00) 29.3 11.94 (10:20) 8.33 (06:40) 0 0 0 0 0
01-08-2017 30.5 (14:50) 25.2 (00:00) 27.9 14.44 (23:30) 11.39 (18:00) 0 0 0 0 0
31-07-2017 31.9 (14:10) 24.5 (00:00) 28.2 12.22 (21:50) 10 (21:50) 0 0 0 0 0
30-07-2017 30.2 (14:40) 23.9 (00:00) 27.1 8.33 (01:10) 6.11 (01:10) 0 0 0 0 0
29-07-2017 31 (13:20) 23.8 (00:00) 27.4 7.78 (20:50) 7.22 (20:50) 0 0 0 0 0
28-07-2017 29.4 (13:20) 22.6 (00:00) 26 21.94 (18:50) 8.33 (16:10) 0 0 0 0 0
27-07-2017 29 (12:30) 21.3 (00:00) 25.1 15.83 (15:50) 9.17 (15:50) 0 0 0 0 0
26-07-2017 26.6 (11:00) 21.8 (00:00) 24.2 8.06 (17:30) 5.56 (13:20) 0.8 0 0.1 0.7 0
25-07-2017 26.2 (13:20) 22.3 (00:00) 24.3 13.61 (11:30) 11.11 (07:10) 0.3 0.3 0 0 0
24-07-2017 28.2 (15:10) 23.3 (00:00) 25.8 7.78 (04:10) 6.39 (04:20) 1.8 0 0 1.8 0
23-07-2017 28.8 (16:50) 23.9 (00:00) 26.3 10.28 (05:30) 7.5 (05:20) 0 0 0 0 0

Gráficas

Temp. máximas Temp. mínimas Temp. medias Precipitaciones Rachas de viento máximas Velocidades máximas media en intervalos de 10 minutos

Datos horarios

Fecha y hora oficial Temperatura (ºC) Velocidad del viento (km/h) Dirección del viento Racha (km/h) Dirección de racha Precipitación (mm) Presión (hPa) Tendencia (hPa) Humedad (%)
2017-08-21 23:00:00 23.6 22 Norte 28 Norte 0 -- -- 80
2017-08-21 22:00:00 23.7 23 Norte 28 Norte 0 -- -- 81
2017-08-21 21:00:00 23.9 20 Norte 29 Norte 0 -- -- 80
2017-08-21 20:00:00 24.1 25 Norte 32 Norte 0 -- -- 76
2017-08-21 19:00:00 24.4 28 Norte 36 Norte 0 -- -- 74
2017-08-21 18:00:00 25 30 Norte 36 Norte 0 -- -- 69
2017-08-21 17:00:00 26 32 Norte 38 Norte 0 -- -- 64
2017-08-21 16:00:00 26.6 29 Norte 38 Norte 0 -- -- 64
2017-08-21 15:00:00 27.7 31 Norte 38 Norte 0 -- -- 59
2017-08-21 14:00:00 28.4 28 Norte 35 Norte 0 -- -- 59
2017-08-21 13:00:00 28 27 Norte 35 Norte 0 -- -- 59
2017-08-21 12:00:00 28.1 24 Norte 34 Norte 0 -- -- 56
2017-08-21 11:00:00 27.2 27 Norte 35 Norte 0 -- -- 57
2017-08-21 10:00:00 25.9 27 Norte 39 Norte 0 -- -- 56
2017-08-21 09:00:00 25.3 27 Norte 36 Norte 0 -- -- 59
2017-08-21 08:00:00 24.3 29 Norte 39 Norte 0 -- -- 68
2017-08-21 07:00:00 23.8 29 Norte 39 Norte 0 -- -- 70
2017-08-21 06:00:00 23.4 19 Norte 28 Norte 0 -- -- 84
2017-08-21 05:00:00 23.2 14 Noroeste 26 Norte 0 -- -- 82
2017-08-21 04:00:00 23.6 15 Norte 22 Norte 0 -- -- 77
2017-08-21 03:00:00 23.4 12 Norte 19 Norte 0 -- -- 77
2017-08-21 02:00:00 23.2 12 Noroeste 21 Norte 0 -- -- 72
2017-08-21 01:00:00 24.1 17 Norte 24 Norte 0 -- -- 69
2017-08-21 00:00:00 24.1 18 Norte 26 Norte 0 -- -- 67
2017-08-20 23:00:00 24 18 Norte 25 Norte 0 -- -- 67
2017-08-20 22:00:00 24.1 21 Norte 29 Norte 0 -- -- 64
2017-08-20 21:00:00 24.3 22 Norte 28 Norte 0 -- -- 60
2017-08-20 20:00:00 24.5 24 Norte 30 Nordeste 0 -- -- 58
2017-08-20 19:00:00 24.5 22 Norte 32 Nordeste 0 -- -- 56
2017-08-20 18:00:00 24.4 28 Norte 38 Norte 0 -- -- 56
2017-08-20 17:00:00 24.8 35 Norte 41 Norte 0 -- -- 56
2017-08-20 16:00:00 25 33 Norte 48 Norte 0 -- -- 56
2017-08-20 15:00:00 25.1 39 Norte 53 Norte 0 -- -- 59
2017-08-20 14:00:00 25.4 44 Norte 57 Norte 0 -- -- 56
2017-08-20 13:00:00 25.5 44 Norte 60 Norte 0 -- -- 59
2017-08-20 12:00:00 25 50 Norte 60 Norte 0 -- -- 62
2017-08-20 11:00:00 24.9 50 Norte 59 Norte 0 -- -- 60
2017-08-20 10:00:00 25.3 46 Norte 60 Norte 0 -- -- 56
2017-08-20 09:00:00 24.6 51 Norte 61 Norte 0 -- -- 59
2017-08-20 08:00:00 24.1 49 Norte 58 Norte 0 -- -- 62
2017-08-20 07:00:00 24.1 48 Norte 59 Norte 0 -- -- 61
2017-08-20 06:00:00 24.2 45 Norte 56 Norte 0 -- -- 64
2017-08-20 05:00:00 24.4 43 Norte 51 Norte 0 -- -- 65
2017-08-20 04:00:00 24.6 35 Norte 43 Norte 0 -- -- 64
2017-08-20 03:00:00 24.9 30 Nordeste 41 Norte 0 -- -- 64
2017-08-20 02:00:00 24.7 21 Nordeste 26 Nordeste 0 -- -- 65
2017-08-20 01:00:00 24.6 19 Norte 27 Norte 0 -- -- 66
2017-08-20 00:00:00 24.5 18 Norte 23 Norte 0 -- -- 70
2017-08-19 23:00:00 23.9 15 Nordeste 25 Norte 0 -- -- 79
2017-08-19 22:00:00 24.2 19 Norte 30 Norte 0 -- -- 78
2017-08-19 21:00:00 24.3 24 Norte 32 Norte 0 -- -- 75
2017-08-19 20:00:00 24.6 27 Norte 33 Norte 0 -- -- 77
2017-08-19 19:00:00 24.9 27 Norte 31 Norte 0 -- -- 72
2017-08-19 18:00:00 25.3 21 Norte 31 Norte 0 -- -- 72
2017-08-19 17:00:00 25.6 26 Norte 40 Norte 0 -- -- 67
2017-08-19 16:00:00 25 35 Norte 42 Norte 0 -- -- 72
2017-08-19 15:00:00 25.2 35 Norte 46 Norte 0 -- -- 75
2017-08-19 14:00:00 26.1 36 Norte 45 Norte 0 -- -- 76
2017-08-19 13:00:00 27.4 28 Norte 33 Norte 0 -- -- 70
2017-08-19 12:00:00 26.7 30 Norte 41 Norte 0 -- -- 72
2017-08-19 11:00:00 27.1 29 Norte 45 Norte 0 -- -- 65
2017-08-19 10:00:00 26.1 39 Norte 48 Norte 0 -- -- 71
2017-08-19 09:00:00 25.5 38 Norte 46 Norte 0 -- -- 79
2017-08-19 08:00:00 25 36 Norte 45 Norte 0 -- -- 83
2017-08-19 07:00:00 24.5 31 Nordeste 40 Norte 0 -- -- 86
2017-08-19 06:00:00 24.6 35 Norte 50 Norte 0 -- -- 87
2017-08-19 05:00:00 25.1 35 Norte 45 Norte 0 -- -- 91
2017-08-19 04:00:00 25.1 19 Norte 23 Norte 0 -- -- 97
2017-08-19 03:00:00 25.1 10 Norte 20 Norte 0 -- -- 97
2017-08-19 02:00:00 25.2 12 Nordeste 15 Nordeste 0 -- -- 95
2017-08-19 01:00:00 25.3 0 Calma 8 Sudoeste 0 -- -- 92
2017-08-19 00:00:00 25.3 8 Sudoeste 11 Sur 0 -- -- 89
2017-08-18 23:00:00 25.5 11 Sur 19 Sur 0 -- -- 88
2017-08-18 22:00:00 25.9 18 Sur 28 Sur 0 -- -- 86
2017-08-18 21:00:00 26.2 17 Sur 27 Sur 0 -- -- 88
2017-08-18 20:00:00 26.5 13 Sur 27 Sur 0 -- -- 86
2017-08-18 19:00:00 27.5 20 Sur 26 Sur 0 -- -- 82
2017-08-18 18:00:00 28.7 22 Sur 30 Sur 0 -- -- 74
2017-08-18 17:00:00 30.1 26 Sur 30 Sur 0 -- -- 68
2017-08-18 16:00:00 29.7 22 Sur 26 Sur 0 -- -- 67
2017-08-18 15:00:00 29.9 21 Sur 25 Sudeste 0 -- -- 64
2017-08-18 14:00:00 30.3 19 Sur 24 Sur 0 -- -- 65
2017-08-18 13:00:00 29.9 20 Sur 24 Sur 0 -- -- 67
2017-08-18 12:00:00 29.8 17 Sur 21 Sur 0 -- -- 70
2017-08-18 11:00:00 29.7 12 Sur 14 Sur 0 -- -- 62
2017-08-18 10:00:00 28.6 8 Sur 10 Sur 0 -- -- 69
2017-08-18 09:00:00 27.2 4 Sudeste 7 Sudeste 0 -- -- 76
2017-08-18 08:00:00 26.3 0 Calma 4 Este 0 -- -- 79
2017-08-18 07:00:00 24.3 3 Sudeste 5 Sudeste 0 -- -- 86
2017-08-18 06:00:00 24.4 2 Sur 9 Sudoeste 0 -- -- 81
2017-08-18 05:00:00 24 7 Sur 9 Sur 0 -- -- 88
2017-08-18 04:00:00 24.4 3 Sur 6 Sudeste 0 -- -- 89
2017-08-18 03:00:00 24.6 0 Calma 10 Sur 0 -- -- 86
2017-08-18 02:00:00 24.6 10 Sur 13 Sur 0 -- -- 83
2017-08-18 01:00:00 24.9 12 Sur 13 Sur 0 -- -- 81
2017-08-18 00:00:00 24.9 7 Sur 9 Sur 0 -- -- 80
2017-08-17 23:00:00 25.5 0 Calma -- -- 0 -- -- 79
2017-08-17 22:00:00 25.7 0 Calma -- -- 0 -- -- 74
2017-08-17 21:00:00 25.9 0 Calma 6 Sudeste 0 -- -- 72
2017-08-17 20:00:00 26.5 4 Sudeste 9 Sudeste 0 -- -- 71
2017-08-17 19:00:00 27 5 Sudeste 11 Sudeste 0 -- -- 71
2017-08-17 18:00:00 27.6 7 Sudeste 12 Sur 0 -- -- 65
2017-08-17 17:00:00 28 8 Sudeste 14 Nordeste 0 -- -- 66
2017-08-17 16:00:00 27.6 9 Nordeste 19 Nordeste 0 -- -- 73
2017-08-17 15:00:00 28.4 17 Norte 24 Norte 0 -- -- 72
2017-08-17 14:00:00 27.7 17 Norte 22 Norte 0 -- -- 70
2017-08-17 13:00:00 29.8 10 Norte 15 Norte 0 -- -- 57
2017-08-17 12:00:00 29.2 10 Norte 14 Norte 0 -- -- 64
2017-08-17 11:00:00 28.1 7 Nordeste 10 Nordeste 0 -- -- 72
2017-08-17 10:00:00 27.7 4 Este 13 Nordeste 0 -- -- 73
2017-08-17 09:00:00 27 7 Norte 15 Norte 0 -- -- 72
2017-08-17 08:00:00 25.2 14 Norte 21 Norte 0 -- -- 88
2017-08-17 07:00:00 24.1 15 Nordeste 26 Norte 0 -- -- 93
2017-08-17 06:00:00 24.1 19 Norte 22 Norte 0 -- -- 95
2017-08-17 05:00:00 24.5 19 Norte 23 Norte 0 -- -- 92
2017-08-17 04:00:00 24.4 17 Norte 20 Norte 0 -- -- 95
2017-08-17 03:00:00 24.5 11 Nordeste 15 Norte 0 -- -- 97
2017-08-17 02:00:00 24.9 5 Nordeste 13 Este 0 -- -- 95
2017-08-17 01:00:00 25.1 8 Este 15 Este 0 -- -- 93
2017-08-17 00:00:00 25.3 7 Este 18 Nordeste 0 -- -- 92
2017-08-16 23:00:00 25.5 8 Este 18 Este 0 -- -- 90
2017-08-16 22:00:00 25.6 10 Este 18 Sudeste 0 -- -- 89
2017-08-16 21:00:00 25.8 11 Este 18 Sudeste 0 -- -- 86
2017-08-16 20:00:00 26.2 10 Este 16 Este 0 -- -- 84
2017-08-16 19:00:00 26.4 10 Este 17 Este 0 -- -- 83
2017-08-16 18:00:00 27 12 Este 17 Sudeste 0 -- -- 79
2017-08-16 17:00:00 28 12 Sudeste 18 Sudeste 0 -- -- 73
2017-08-16 16:00:00 29.1 16 Sudeste 21 Sudeste 0 -- -- 69
2017-08-16 15:00:00 29.3 18 Sudeste 23 Sudeste 0 -- -- 69
2017-08-16 14:00:00 29.5 17 Sudeste 23 Sudeste 0 -- -- 69
2017-08-16 13:00:00 29.2 18 Sudeste 22 Sudeste 0 -- -- 72
2017-08-16 12:00:00 28.3 14 Sudeste 19 Sudeste 0 -- -- 79
2017-08-16 11:00:00 26.7 7 Este 17 Nordeste 0 -- -- 90
2017-08-16 10:00:00 25.7 10 Nordeste 15 Nordeste 0 -- -- 93
2017-08-16 09:00:00 25.5 14 Nordeste 18 Nordeste 0 -- -- 94
2017-08-16 08:00:00 24 14 Nordeste 18 Nordeste 0 -- -- 98
2017-08-16 07:00:00 23.9 18 Nordeste 21 Nordeste 0 -- -- 97
2017-08-16 06:00:00 24 13 Nordeste 17 Nordeste 0 -- -- 98
2017-08-16 05:00:00 24.3 9 Nordeste 14 Nordeste 0 -- -- 98
2017-08-16 04:00:00 24.3 8 Nordeste 12 Nordeste 0 -- -- 98
2017-08-16 03:00:00 24.4 9 Este 18 Este 0 -- -- 97
2017-08-16 02:00:00 24.5 10 Este 19 Este 0 -- -- 96
2017-08-16 01:00:00 24.8 6 Este 17 Este 0 -- -- 96
2017-08-16 00:00:00 24.9 11 Nordeste 16 Nordeste 0 -- -- 96
2017-08-15 23:00:00 25 7 Nordeste 14 Nordeste 0 -- -- 96
2017-08-15 22:00:00 25.4 9 Sudeste 17 Sudeste 0 -- -- 96
2017-08-15 21:00:00 25.5 13 Sudeste 17 Sur 0 -- -- 97
2017-08-15 20:00:00 25.9 14 Sudeste 17 Sudeste 0 -- -- 95
2017-08-15 19:00:00 26.3 10 Sudeste 22 Sudeste 0 -- -- 94
2017-08-15 18:00:00 27.6 17 Sudeste 24 Sudeste 0 -- -- 88
2017-08-15 17:00:00 28.2 15 Sudeste 23 Sudeste 0 -- -- 82
2017-08-15 16:00:00 28.6 19 Sudeste 24 Sudeste 0 -- -- 78
2017-08-15 15:00:00 28.1 16 Sudeste 21 Sudeste 0 -- -- 73
2017-08-15 14:00:00 28.6 15 Sudeste 25 Sudeste 0 -- -- 69
2017-08-15 13:00:00 28.4 17 Sudeste 24 Sudeste 0 -- -- 75
2017-08-15 12:00:00 28.4 18 Sudeste 25 Sudeste 0 -- -- 75
2017-08-15 11:00:00 27.8 17 Sudeste 33 Este 0 -- -- 79
2017-08-15 10:00:00 26 26 Sudeste 33 Sur 0 -- -- 88
2017-08-15 09:00:00 25.8 13 Este 21 Este 0 -- -- 89
2017-08-15 08:00:00 24.6 16 Nordeste 22 Nordeste 0 -- -- 96
2017-08-15 07:00:00 24.1 17 Nordeste 23 Nordeste 0 -- -- 97
2017-08-15 06:00:00 23.9 12 Norte 20 Norte 0 -- -- 97
2017-08-15 05:00:00 24 11 Norte 15 Sudeste 0 -- -- 95
2017-08-15 04:00:00 24.4 10 Sur 26 Sur 0 -- -- 94
2017-08-15 03:00:00 24.6 19 Sur 26 Sur 0 -- -- 94
2017-08-15 02:00:00 24.3 20 Sudeste 30 Sur 0 -- -- 93
2017-08-15 01:00:00 24.5 24 Sudeste 38 Sudeste 0 -- -- 91
2017-08-15 00:00:00 24.3 21 Sudeste 28 Sudeste 0 -- -- 88
2017-08-14 23:00:00 24.3 13 Nordeste 26 Nordeste 0 -- -- 89
2017-08-14 22:00:00 24.1 16 Nordeste 27 Nordeste 0 -- -- 92
2017-08-14 21:00:00 24.5 20 Este 34 Sudeste 0 -- -- 89
2017-08-14 20:00:00 24.9 23 Sudeste 33 Sudeste 0 -- -- 83
2017-08-14 19:00:00 25.1 20 Sudeste 27 Sudeste 0 -- -- 82
2017-08-14 18:00:00 25.4 22 Sudeste 30 Este 0 -- -- 77
2017-08-14 17:00:00 26.1 22 Sudeste 34 Sudeste 0 -- -- 73
2017-08-14 16:00:00 27.2 28 Sudeste 33 Sudeste 0 -- -- 72
2017-08-14 15:00:00 26 13 Este 24 Este 0 -- -- 77
2017-08-14 14:00:00 26.7 13 Este 24 Este 0 -- -- 67
2017-08-14 13:00:00 26.6 10 Este 26 Este 0 -- -- 68
2017-08-14 12:00:00 27 16 Este 26 Sudeste 0 -- -- 66
2017-08-14 11:00:00 26.6 16 Este 24 Este 0 -- -- 70
2017-08-14 10:00:00 25.4 17 Nordeste 22 Nordeste 0 -- -- 73
2017-08-14 09:00:00 25.4 15 Nordeste 21 Norte 0 -- -- 77
2017-08-14 08:00:00 24.7 13 Norte 22 Norte 0 -- -- 82
2017-08-14 07:00:00 23 12 Nordeste 16 Nordeste 0 -- -- 85
2017-08-14 06:00:00 23 4 Nordeste 13 Nordeste 0 -- -- 86
2017-08-14 05:00:00 23.2 6 Este 15 Este 0 -- -- 82
2017-08-14 04:00:00 23.5 9 Nordeste 17 Nordeste 0 -- -- 82
2017-08-14 03:00:00 23.3 5 Este 14 Nordeste 0 -- -- 80
2017-08-14 02:00:00 23.5 10 Este 19 Sudeste 0 -- -- 77
2017-08-14 01:00:00 24 16 Sudeste 22 Este 0 -- -- 74
2017-08-14 00:00:00 23.9 14 Sudeste 24 Nordeste 0 -- -- 73
2017-08-13 23:00:00 24.1 17 Sudeste 24 Sudeste 0 -- -- 74
2017-08-13 22:00:00 24.1 12 Sudeste 21 Este 0 -- -- 74
2017-08-13 21:00:00 24.3 12 Sudeste 18 Sudeste 0 -- -- 72
2017-08-13 20:00:00 24.6 13 Sudeste 25 Sudeste 0 -- -- 71
2017-08-13 19:00:00 25 17 Sudeste 25 Norte 0 -- -- 74
2017-08-13 18:00:00 25.4 23 Nordeste 35 Norte 0 -- -- 65
2017-08-13 17:00:00 26.5 23 Norte 29 Norte 0 -- -- 59
2017-08-13 16:00:00 26.3 24 Norte 31 Norte 0 -- -- 57
2017-08-13 15:00:00 28.7 24 Norte 29 Norte 0 -- -- 51
2017-08-13 14:00:00 28.2 19 Norte 23 Norte 0 -- -- 60
2017-08-13 13:00:00 27.5 17 Norte 23 Norte 0 -- -- 62
2017-08-13 12:00:00 26.4 18 Norte 23 Norte 0 -- -- 65
2017-08-13 11:00:00 26.8 17 Norte 23 Norte 0 -- -- 67
2017-08-13 10:00:00 26 15 Norte 23 Norte 0 -- -- 73
2017-08-13 09:00:00 24.6 16 Norte 26 Norte 0 -- -- 75
2017-08-13 08:00:00 24.2 19 Norte 27 Norte 0 -- -- 75
2017-08-13 07:00:00 23.2 21 Norte 30 Norte 0 -- -- 74
2017-08-13 06:00:00 21.8 13 Noroeste 16 Norte 0 -- -- 86
2017-08-13 05:00:00 21.9 7 Noroeste 15 Noroeste 0 -- -- 83
2017-08-13 04:00:00 21.9 7 Oeste 13 Noroeste 0 -- -- 82
2017-08-13 03:00:00 22.1 7 Oeste 9 Oeste 0 -- -- 81
2017-08-13 02:00:00 22.1 7 Sudoeste 13 Sudoeste 0 -- -- 81
2017-08-13 01:00:00 22.5 11 Sudoeste 17 Sudoeste 0 -- -- 81
2017-08-13 00:00:00 22.6 13 Sudoeste 15 Sudoeste 0 -- -- 80
2017-08-12 23:00:00 22.9 11 Sur 22 Sur 0 -- -- 77
2017-08-12 22:00:00 23.4 11 Sur 22 Sur 0 -- -- 74
2017-08-12 21:00:00 23.4 13 Sur 20 Sur 0 -- -- 73
2017-08-12 20:00:00 23.6 13 Sudeste 21 Sudeste 0 -- -- 71
2017-08-12 19:00:00 24 13 Sudeste 23 Sudeste 0 -- -- 69
2017-08-12 18:00:00 25.1 15 Sudeste 24 Sudeste 0 -- -- 65
2017-08-12 17:00:00 25.4 17 Sudeste 24 Sudeste 0 -- -- 62
2017-08-12 16:00:00 26.1 18 Sudeste 30 Sudeste 0 -- -- 60
2017-08-12 15:00:00 26.6 19 Sudeste 29 Sudeste 0 -- -- 57
2017-08-12 14:00:00 26.6 20 Sudeste 27 Sudeste 0 -- -- 56
2017-08-12 13:00:00 26.1 14 Sudeste 24 Sudeste 0 -- -- 56
2017-08-12 12:00:00 26.6 9 Sudeste 20 Este 0 -- -- 55
2017-08-12 11:00:00 25.6 7 Este 22 Este 0 -- -- 58
2017-08-12 10:00:00 25.1 7 Este 18 Este 0 -- -- 58
2017-08-12 09:00:00 24.7 12 Este 24 Sudeste 0 -- -- 61
2017-08-12 08:00:00 23.6 9 Sudeste 21 Nordeste 0 -- -- 64
2017-08-12 07:00:00 21.9 10 Este 21 Nordeste 0 -- -- 71
2017-08-12 06:00:00 21.9 9 Este 21 Nordeste 0 -- -- 72
2017-08-12 05:00:00 21.9 15 Nordeste 28 Nordeste 0 -- -- 74
2017-08-12 04:00:00 22.1 19 Nordeste 29 Nordeste 0 -- -- 76
2017-08-12 03:00:00 21.9 14 Este 32 Nordeste 0 -- -- 76
2017-08-12 02:00:00 22.1 15 Este 39 Nordeste 0 -- -- 78
2017-08-12 01:00:00 22.2 21 Este 41 Este 0 -- -- 79
2017-08-12 00:00:00 22.3 24 Este 42 Este 0 -- -- 78
2017-08-11 23:00:00 22.5 26 Este 42 Este 0 -- -- 80
2017-08-11 22:00:00 22.4 21 Este 38 Este 0 -- -- 80
2017-08-11 21:00:00 22.5 22 Este 44 Este 0 -- -- 80
2017-08-11 20:00:00 22.5 24 Este 44 Sudeste 0 -- -- 78
2017-08-11 19:00:00 22.9 13 Este 30 Nordeste 0 -- -- 76
2017-08-11 18:00:00 23.9 3 Norte 22 Norte 0 -- -- 66
2017-08-11 17:00:00 24.4 16 Norte 22 Norte 0 -- -- 61
2017-08-11 16:00:00 23.8 15 Norte 26 Norte 0 -- -- 62
2017-08-11 15:00:00 23.7 19 Norte 27 Norte 0 -- -- 62
2017-08-11 14:00:00 25.2 19 Norte 26 Norte 0 -- -- 59
2017-08-11 13:00:00 25.8 15 Norte 29 Noroeste 0 -- -- 55
2017-08-11 12:00:00 25.1 22 Norte 33 Norte 0 -- -- 58
2017-08-11 11:00:00 23.6 23 Norte 32 Norte 0 -- -- 62
2017-08-11 10:00:00 24.1 19 Norte 25 Norte 0 -- -- 58
2017-08-11 09:00:00 24.9 4 Sudoeste 18 Sudoeste 0 -- -- 61
2017-08-11 08:00:00 22.6 13 Sudoeste 24 Sudoeste 0 -- -- 68
2017-08-11 07:00:00 19.7 17 Sudoeste 25 Sudoeste 0 -- -- 77
2017-08-11 06:00:00 20 18 Sudoeste 26 Sudoeste 0 -- -- 75
2017-08-11 05:00:00 20.4 18 Sudoeste 24 Sudoeste 0 -- -- 74
2017-08-11 04:00:00 20.4 13 Sudoeste 20 Sudoeste 0 -- -- 74
2017-08-11 03:00:00 20.1 10 Sudoeste 16 Sudoeste 0 -- -- 74
2017-08-11 02:00:00 20.3 11 Sudoeste 19 Sudoeste 0 -- -- 75
2017-08-11 01:00:00 20.5 14 Sudoeste 18 Sudoeste 0 -- -- 74
2017-08-11 00:00:00 20.9 14 Sudoeste 16 Sudoeste 0 -- -- 73
2017-08-10 23:00:00 21.5 12 Sur 23 Sur 0 -- -- 72
2017-08-10 22:00:00 21.8 13 Sur 24 Sudeste 0 -- -- 71
2017-08-10 21:00:00 21.7 9 Sudeste 16 Sudeste 0 -- -- 69
2017-08-10 20:00:00 21.9 2 Nordeste 14 Nordeste 0 -- -- 67
2017-08-10 19:00:00 22.1 8 Nordeste 26 Nordeste 0 -- -- 65
2017-08-10 18:00:00 22.4 17 Norte 25 Norte 0 -- -- 63
2017-08-10 17:00:00 22.9 21 Nordeste 34 Nordeste 0 -- -- 58
2017-08-10 16:00:00 23 24 Nordeste 41 Norte 0 -- -- 62
2017-08-10 15:00:00 22.9 29 Nordeste 42 Nordeste 0 -- -- 57
2017-08-10 14:00:00 22 31 Nordeste 49 Nordeste 0 -- -- 62
2017-08-10 13:00:00 21.5 27 Nordeste 40 Nordeste 0 -- -- 65
2017-08-10 12:00:00 20.7 19 Nordeste 42 Norte 0 -- -- 69
2017-08-10 11:00:00 19.9 39 Norte 57 Norte 0.2 -- -- 83
2017-08-10 10:00:00 19.2 46 Norte 57 Norte 2.5 -- -- 92
2017-08-10 09:00:00 21.1 45 Norte 69 Norte 0 -- -- 74
2017-08-10 08:00:00 21.3 45 Norte 67 Norte 0 -- -- 80
2017-08-10 07:00:00 20.7 54 Norte 75 Norte 0.1 -- -- 79
2017-08-10 06:00:00 20.7 57 Norte 72 Norte 1.2 -- -- 86
2017-08-10 05:00:00 21.3 57 Norte 76 Norte 0 -- -- 77
2017-08-10 04:00:00 22.1 60 Norte 75 Norte 0 -- -- 73
2017-08-10 03:00:00 21.9 59 Norte 76 Norte 0 -- -- 75
2017-08-10 02:00:00 22.4 53 Norte 67 Norte 0 -- -- 74
2017-08-10 01:00:00 22.6 52 Norte 62 Norte 0 -- -- 74
2017-08-10 00:00:00 23 48 Norte 58 Norte 0 -- -- 75
2017-08-09 23:00:00 23.7 31 Nordeste 42 Norte 0 -- -- 66
2017-08-09 22:00:00 23.8 32 Nordeste 38 Nordeste 0 -- -- 71
2017-08-09 21:00:00 24.1 30 Norte 37 Nordeste 0 -- -- 69
2017-08-09 20:00:00 24.1 27 Nordeste 42 Norte 0 -- -- 68
2017-08-09 19:00:00 24.6 32 Norte 49 Norte 0 -- -- 68
2017-08-09 18:00:00 24.4 39 Norte 51 Norte 0 -- -- 73
2017-08-09 17:00:00 24.5 41 Norte 49 Norte 0 -- -- 71
2017-08-09 16:00:00 25.3 36 Norte 46 Norte 0 -- -- 71
2017-08-09 15:00:00 25 38 Norte 44 Norte 0 -- -- 71
2017-08-09 14:00:00 25.6 32 Norte 39 Norte 0 -- -- 69
2017-08-09 13:00:00 26.6 16 Norte 23 Norte 0 -- -- 61
2017-08-09 12:00:00 27.3 13 Nordeste 26 Nordeste 0 -- -- 56
2017-08-09 11:00:00 25.8 19 Nordeste 28 Norte 0 -- -- 61
2017-08-09 10:00:00 26.3 22 Nordeste 33 Nordeste 0 -- -- 64
2017-08-09 09:00:00 25.1 25 Nordeste 32 Nordeste 0 -- -- 69
2017-08-09 08:00:00 24.1 21 Nordeste 39 Nordeste 0 -- -- 73
2017-08-09 07:00:00 23.2 33 Nordeste 42 Norte 0 -- -- 76
2017-08-09 06:00:00 23.3 39 Nordeste 53 Norte 0 -- -- 75
2017-08-09 05:00:00 23.7 46 Norte 59 Norte 0 -- -- 78
2017-08-09 04:00:00 23.9 48 Norte 59 Norte 0 -- -- 74
2017-08-09 03:00:00 24 44 Norte 52 Norte 0 -- -- 75
2017-08-09 02:00:00 24 44 Norte 57 Norte 0 -- -- 74
2017-08-09 01:00:00 24.1 47 Norte 60 Norte 0 -- -- 77
2017-08-09 00:00:00 24.2 52 Norte 62 Norte 0 -- -- 83
2017-08-08 23:00:00 24.1 45 Norte 56 Norte 0 -- -- 85
2017-08-08 22:00:00 24 46 Norte 62 Norte 0 -- -- 90
2017-08-08 21:00:00 24.1 54 Norte 64 Norte 0 -- -- 91
2017-08-08 20:00:00 24.2 50 Norte 61 Norte 0 -- -- 96
2017-08-08 19:00:00 25 50 Norte 60 Norte 0 -- -- 96
2017-08-08 18:00:00 25.1 51 Norte 60 Norte 0 -- -- 96
2017-08-08 17:00:00 26 41 Norte 49 Norte 0 -- -- 95
2017-08-08 16:00:00 29.2 16 Nordeste 22 Nordeste 0 -- -- 85
2017-08-08 15:00:00 29.1 18 Nordeste 21 Nordeste 0 -- -- 87
2017-08-08 14:00:00 29.1 7 Este 20 Sudeste 0 -- -- 87
2017-08-08 13:00:00 31.2 18 Sudeste 30 Sur 0 -- -- 77
2017-08-08 12:00:00 30.9 27 Sur 31 Sur 0 -- -- 78
2017-08-08 11:00:00 30.1 26 Sur 31 Sur 0 -- -- 82
2017-08-08 10:00:00 28.9 20 Sur 28 Sur 0 -- -- 85
2017-08-08 09:00:00 26.9 19 Sur 26 Sur 0 -- -- 94
2017-08-08 08:00:00 26.3 6 Sudoeste 40 Sur 0 -- -- 95
2017-08-08 07:00:00 25.8 12 Sur 40 Sur 0 -- -- 94
2017-08-08 06:00:00 26.3 33 Sur 42 Sur 0 -- -- 94
2017-08-08 05:00:00 26.2 27 Sur 50 Sur 0 -- -- 93
2017-08-08 04:00:00 26.3 40 Sur 50 Sur 0 -- -- 92
2017-08-08 03:00:00 26.4 32 Sur 46 Sur 0 -- -- 88
2017-08-08 02:00:00 26.4 28 Sur 40 Sur 0 -- -- 87
2017-08-08 01:00:00 26.5 26 Sur 37 Sudoeste 0 -- -- 86
2017-08-08 00:00:00 26.5 26 Sur 42 Sur 0 -- -- 86
2017-08-07 23:00:00 26.5 24 Sur 46 Sur 0 -- -- 86
2017-08-07 22:00:00 26.6 22 Sur 39 Sudoeste 0 -- -- 86
2017-08-07 21:00:00 26.6 22 Sur 38 Sur 0 -- -- 86
2017-08-07 20:00:00 26.8 22 Sur 33 Sudeste 0 -- -- 85
2017-08-07 19:00:00 27.8 28 Sur 36 Sur 0 -- -- 80
2017-08-07 18:00:00 27.4 25 Sur 34 Sudeste 0 -- -- 77
2017-08-07 17:00:00 29.8 23 Sur 28 Sur 0 -- -- 65
2017-08-07 16:00:00 29.8 23 Sur 27 Sudeste 0 -- -- 64
2017-08-07 15:00:00 30.4 22 Sur 30 Sur 0 -- -- 63
2017-08-07 14:00:00 30.3 21 Sur 27 Sur 0 -- -- 61
2017-08-07 13:00:00 29.6 22 Sudeste 25 Sudeste 0 -- -- 62
2017-08-07 12:00:00 29.2 11 Sudeste 15 Sudeste 0 -- -- 64
2017-08-07 11:00:00 28.1 7 Norte 11 Norte 0 -- -- 65
2017-08-07 10:00:00 28 7 Norte 17 Nordeste 0 -- -- 70
2017-08-07 09:00:00 27.5 12 Norte 20 Norte 0 -- -- 72
2017-08-07 08:00:00 26.3 16 Norte 21 Nordeste 0 -- -- 79
2017-08-07 07:00:00 25 15 Norte 22 Norte 0 -- -- 83
2017-08-07 06:00:00 25 17 Norte 25 Norte 0 -- -- 83
2017-08-07 05:00:00 25 20 Norte 24 Norte 0 -- -- 84
2017-08-07 04:00:00 25 14 Norte 19 Norte 0 -- -- 83
2017-08-07 03:00:00 24.7 13 Norte 17 Norte 0 -- -- 86
2017-08-07 02:00:00 25 10 Norte 15 Norte 0 -- -- 83
2017-08-07 01:00:00 25.1 10 Norte 14 Norte 0 -- -- 81
2017-08-07 00:00:00 25.3 12 Norte 18 Norte 0 -- -- 80
2017-08-06 23:00:00 25.4 15 Norte 18 Norte 0 -- -- 77
2017-08-06 22:00:00 25.3 15 Norte 21 Norte 0 -- -- 82
2017-08-06 21:00:00 25.3 19 Norte 28 Norte 0 -- -- 82
2017-08-06 20:00:00 25.5 24 Norte 30 Norte 0 -- -- 80
2017-08-06 19:00:00 25.9 27 Norte 36 Norte 0 -- -- 79
2017-08-06 18:00:00 26.5 30 Norte 39 Norte 0 -- -- 76
2017-08-06 17:00:00 27.7 33 Norte 41 Norte 0 -- -- 73
2017-08-06 16:00:00 28.1 35 Norte 41 Norte 0 -- -- 72
2017-08-06 15:00:00 27.5 30 Norte 40 Norte 0 -- -- 77
2017-08-06 14:00:00 29.8 25 Norte 32 Norte 0 -- -- 65
2017-08-06 13:00:00 28.5 26 Norte 42 Norte 0 -- -- 70
2017-08-06 12:00:00 27.8 36 Norte 47 Norte 0 -- -- 73
2017-08-06 11:00:00 26.9 36 Norte 46 Norte 0 -- -- 74
2017-08-06 10:00:00 26.3 35 Norte 48 Norte 0 -- -- 80
2017-08-06 09:00:00 25.9 39 Norte 48 Norte 0 -- -- 88
2017-08-06 08:00:00 26 29 Norte 35 Norte 0 -- -- 89
2017-08-06 07:00:00 25.8 21 Nordeste 26 Norte 0 -- -- 88
2017-08-06 06:00:00 26.2 22 Norte 30 Norte 0 -- -- 87
2017-08-06 05:00:00 26.3 9 Norte 14 Norte 0 -- -- 85
2017-08-06 04:00:00 26.4 12 Norte 21 Norte 0 -- -- 83
2017-08-06 03:00:00 26.4 13 Norte 22 Norte 0 -- -- 86
2017-08-06 02:00:00 26.4 7 Norte 17 Norte 0 -- -- 93
2017-08-06 01:00:00 26.8 13 Norte 18 Norte 0 -- -- 93
2017-08-06 00:00:00 26.9 11 Norte 15 Norte 0 -- -- 91
2017-08-05 23:00:00 26.9 0 Calma 5 Sur 0 -- -- 89
2017-08-05 22:00:00 27.2 6 Sur 14 Sur 0 -- -- 87
2017-08-05 21:00:00 27.8 13 Sur 15 Sur 0 -- -- 86
2017-08-05 20:00:00 28.1 10 Sudeste 12 Sudeste 0 -- -- 87
2017-08-05 19:00:00 27.7 8 Nordeste 18 Norte 0 -- -- 86
2017-08-05 18:00:00 28.5 17 Norte 21 Norte 0 -- -- 79
2017-08-05 17:00:00 29.5 17 Norte 19 Norte 0 -- -- 71
2017-08-05 16:00:00 32 14 Norte 19 Norte 0 -- -- 61
2017-08-05 15:00:00 32 16 Norte 19 Norte 0 -- -- 58
2017-08-05 14:00:00 32.4 16 Norte 21 Norte 0 -- -- 58
2017-08-05 13:00:00 32 19 Norte 24 Norte 0 -- -- 57
2017-08-05 12:00:00 30 21 Norte 23 Noroeste 0 -- -- 62
2017-08-05 11:00:00 30.8 22 Norte 27 Norte 0 -- -- 63
2017-08-05 10:00:00 29.4 19 Norte 25 Norte 0 -- -- 67
2017-08-05 09:00:00 27.9 18 Norte 22 Norte 0 -- -- 77
2017-08-05 08:00:00 27.6 12 Norte 18 Norte 0 -- -- 80
2017-08-05 07:00:00 26 14 Norte 19 Norte 0 -- -- 87
2017-08-05 06:00:00 25.6 13 Norte 18 Norte 0 -- -- 95
2017-08-05 05:00:00 25.5 6 Norte 8 Norte 0 -- -- 96
2017-08-05 04:00:00 25.5 5 Noroeste 9 Noroeste 0 -- -- 96
2017-08-05 03:00:00 25.7 6 Norte 8 Noroeste 0 -- -- 97
2017-08-05 02:00:00 25.8 7 Noroeste 15 Norte 0 -- -- 95
2017-08-05 01:00:00 26.2 10 Norte 19 Norte 0 -- -- 92
2017-08-05 00:00:00 26.3 14 Norte 21 Norte 0 -- -- 91
2017-08-04 23:00:00 26.3 13 Norte 20 Norte 0 -- -- 83
2017-08-04 22:00:00 26.5 17 Noroeste 21 Norte 0 -- -- 86
2017-08-04 21:00:00 26.4 17 Norte 21 Norte 0 -- -- 92
2017-08-04 20:00:00 26.9 19 Norte 21 Norte 0 -- -- 90
2017-08-04 19:00:00 27.6 17 Norte 27 Norte 0 -- -- 85
2017-08-04 18:00:00 28.1 25 Norte 33 Norte 0 -- -- 82
2017-08-04 17:00:00 28.1 32 Norte 35 Norte 0 -- -- 80
2017-08-04 16:00:00 29.1 31 Norte 36 Norte 0 -- -- 73
2017-08-04 15:00:00 30 30 Norte 33 Norte 0 -- -- 70
2017-08-04 14:00:00 29.9 26 Norte 33 Norte 0 -- -- 71
2017-08-04 13:00:00 30.1 30 Norte 35 Norte 0 -- -- 74
2017-08-04 12:00:00 28.9 28 Norte 32 Norte 0 -- -- 84
2017-08-04 11:00:00 28.2 25 Norte 35 Norte 0 -- -- 89
2017-08-04 10:00:00 28.7 22 Norte 33 Norte 0 -- -- 87
2017-08-04 09:00:00 27.1 21 Noroeste 28 Noroeste 0 -- -- 91
2017-08-04 08:00:00 26.7 13 Norte 18 Norte 0 -- -- 86
2017-08-04 07:00:00 25.6 0 Calma 9 Noroeste 0 -- -- 89
2017-08-04 06:00:00 25.6 4 Noroeste 6 Noroeste 0 -- -- 94
2017-08-04 05:00:00 26.1 2 Noroeste 16 Norte 0 -- -- 93
2017-08-04 04:00:00 26 6 Noroeste 13 Sudoeste 0 -- -- 86
2017-08-04 03:00:00 25.8 8 Sudoeste 12 Sudoeste 0 -- -- 94
2017-08-04 02:00:00 25.8 6 Sudoeste 11 Sudoeste 0 -- -- 98
2017-08-04 01:00:00 26.2 6 Sur 12 Sudoeste 0 -- -- 98
2017-08-04 00:00:00 26.3 9 Sudoeste 25 Sudoeste 0 -- -- 98
2017-08-03 23:00:00 26.8 16 Sur 28 Sur 0 -- -- 98
2017-08-03 22:00:00 27.2 19 Sur 25 Sur 0 -- -- 97
2017-08-03 21:00:00 27.3 17 Sur 24 Sudeste 0 -- -- 97
2017-08-03 20:00:00 28.4 15 Sur 23 Sur 0 -- -- 95
2017-08-03 19:00:00 29.3 19 Sur 27 Sur 0 -- -- 90
2017-08-03 18:00:00 31 19 Sur 22 Sur 0 -- -- 83
2017-08-03 17:00:00 29.8 5 Este 12 Sudeste 0 -- -- 87
2017-08-03 16:00:00 30.5 5 Este 11 Sudeste 0 -- -- 83
2017-08-03 15:00:00 31.3 8 Sudeste 12 Sudeste 0 -- -- 76
2017-08-03 14:00:00 33.6 8 Sur 20 Sur 0 -- -- 61
2017-08-03 13:00:00 32.2 17 Sur 31 Sudeste 0 -- -- 49
2017-08-03 12:00:00 30 22 Sur 34 Sur 0 -- -- 70
2017-08-03 11:00:00 30.2 25 Sur 31 Sur 0 -- -- 71
2017-08-03 10:00:00 33.2 12 Nordeste 18 Nordeste 0 -- -- 44
2017-08-03 09:00:00 30.5 10 Norte 23 Norte 0 -- -- 70
2017-08-03 08:00:00 28.7 20 Norte 31 Norte 0 -- -- 80
2017-08-03 07:00:00 29.8 22 Norte 30 Noroeste 0 -- -- 56
2017-08-03 06:00:00 32.4 21 Noroeste 41 Sudeste 0 -- -- 37
2017-08-03 05:00:00 30.3 4 Sudeste 46 Sur 0 -- -- 50
2017-08-03 04:00:00 35.1 16 Sur 32 Sur 0 -- -- 25
2017-08-03 03:00:00 35.9 33 Sudoeste 65 Sudoeste 0 -- -- 26
2017-08-03 02:00:00 28.3 26 Sudoeste 51 Sudoeste 0 -- -- 56
2017-08-03 01:00:00 27.5 20 Sur 29 Sudeste 0 -- -- 80
2017-08-03 00:00:00 27.5 11 Sur 21 Sudeste 0 -- -- 82
2017-08-02 23:00:00 28.1 10 Sur 21 Este 0 -- -- 68
2017-08-02 22:00:00 28.1 10 Este 15 Este 0 -- -- 68
2017-08-02 21:00:00 26.9 5 Sur 13 Sur 0 -- -- 96
2017-08-02 20:00:00 27.5 10 Sur 13 Sur 0 -- -- 95
2017-08-02 19:00:00 28.2 10 Sur 17 Sudeste 0 -- -- 93
2017-08-02 18:00:00 28.8 12 Sudeste 22 Sudeste 0 -- -- 91
2017-08-02 17:00:00 30.5 15 Sudeste 19 Sudeste 0 -- -- 85
2017-08-02 16:00:00 31.3 12 Sur 19 Sudeste 0 -- -- 80
2017-08-02 15:00:00 32.3 13 Sur 18 Sur 0 -- -- 74
2017-08-02 14:00:00 30.3 8 Sudeste 12 Sudeste 0 -- -- 79
2017-08-02 13:00:00 29.9 6 Este 19 Este 0 -- -- 85
2017-08-02 12:00:00 29.7 7 Norte 12 Nordeste 0 -- -- 86
2017-08-02 11:00:00 29.2 2 Sudeste 43 Norte 0 -- -- 85
2017-08-02 10:00:00 29.1 9 Noroeste 28 Norte 0 -- -- 78
2017-08-02 09:00:00 28 17 Sur 29 Sur 0 -- -- 84
2017-08-02 08:00:00 30 11 Sudoeste 28 Sudoeste 0 -- -- 51
2017-08-02 07:00:00 29.3 26 Sudoeste 43 Sur 0 -- -- 61
2017-08-02 06:00:00 29.6 26 Sur 36 Sur 0 -- -- 58
2017-08-02 05:00:00 28.7 17 Sur 25 Sur 0 -- -- 66
2017-08-02 04:00:00 28.2 8 Este 24 Nordeste 0 -- -- 72
2017-08-02 03:00:00 28.7 8 Norte 13 Sudeste 0 -- -- 66
2017-08-02 02:00:00 27.8 7 Sur 13 Sur 0 -- -- 73
2017-08-02 01:00:00 28.8 4 Este 21 Norte 0 -- -- 65
2017-08-02 00:00:00 29.2 13 Noroeste 52 Este 0 -- -- 59
2017-08-01 23:00:00 27.7 14 Nordeste 40 Sur 0 -- -- 80
2017-08-01 22:00:00 26.6 17 Sudoeste 41 Norte 0 -- -- 95
2017-08-01 21:00:00 26.6 33 Norte 49 Norte 0 -- -- 94
2017-08-01 20:00:00 27.1 33 Norte 44 Norte 0 -- -- 92
2017-08-01 19:00:00 27.1 32 Norte 47 Norte 0 -- -- 94
2017-08-01 18:00:00 27.2 41 Norte 49 Norte 0 -- -- 94
2017-08-01 17:00:00 27.5 33 Norte 39 Norte 0 -- -- 94
2017-08-01 16:00:00 28.9 3 Noroeste 14 Sudeste 0 -- -- 89
2017-08-01 15:00:00 28.6 6 Sudeste 18 Sudoeste 0 -- -- 88
2017-08-01 14:00:00 26.8 14 Este 24 Sudeste 0 -- -- 95
2017-08-01 13:00:00 28.6 3 Este 18 Sudoeste 0 -- -- 86
2017-08-01 12:00:00 29.2 10 Sur 32 Sur 0 -- -- 75
2017-08-01 11:00:00 26.4 19 Sur 43 Sur 0 -- -- 97
2017-08-01 10:00:00 26.1 5 Sur 40 Sudeste 0 -- -- 98
2017-08-01 09:00:00 25.9 10 Sur 31 Sur 0 -- -- 98
2017-08-01 08:00:00 25.6 8 Sudeste 22 Sur 0 -- -- 98
2017-08-01 07:00:00 25.4 15 Sur 25 Sur 0 -- -- 98
2017-08-01 06:00:00 25.4 12 Sur 19 Sudeste 0 -- -- 98
2017-08-01 05:00:00 25.5 15 Sudeste 21 Sudeste 0 -- -- 98
2017-08-01 04:00:00 25.7 4 Este 19 Este 0 -- -- 97
2017-08-01 03:00:00 25.4 4 Sudoeste 23 Sudoeste 0 -- -- 98
2017-08-01 02:00:00 25.7 13 Sudeste 18 Sudeste 0 -- -- 98
2017-08-01 01:00:00 25.9 9 Sudeste 26 Sudeste 0 -- -- 98
2017-08-01 00:00:00 26 13 Sur 30 Sur 0 -- -- 98
2017-07-31 23:00:00 26.1 14 Sur 30 Sudeste 0 -- -- 98
2017-07-31 22:00:00 26.3 12 Sur 44 Sudeste 0 -- -- 98
2017-07-31 21:00:00 26.4 18 Sudeste 24 Sudeste 0 -- -- 98
2017-07-31 20:00:00 26.9 21 Sudeste 35 Sudeste 0 -- -- 97
2017-07-31 19:00:00 27.1 23 Sudeste 30 Sudeste 0 -- -- 96
2017-07-31 18:00:00 27.6 12 Este 18 Este 0 -- -- 92
2017-07-31 17:00:00 29.2 14 Sudeste 18 Sudeste 0 -- -- 82
2017-07-31 16:00:00 30.7 12 Sur 15 Sudeste 0 -- -- 73
2017-07-31 15:00:00 31.5 9 Sur 20 Sur 0 -- -- 70
2017-07-31 14:00:00 31.5 12 Sur 23 Sur 0 -- -- 69
2017-07-31 13:00:00 30.4 18 Sur 26 Sur 0 -- -- 72
2017-07-31 12:00:00 29.8 14 Sur 22 Sudeste 0 -- -- 75
2017-07-31 11:00:00 27.6 9 Este 17 Este 0 -- -- 83
2017-07-31 10:00:00 26.5 10 Nordeste 17 Nordeste 0 -- -- 88
2017-07-31 09:00:00 26.7 13 Nordeste 16 Nordeste 0 -- -- 86
2017-07-31 08:00:00 25.6 9 Nordeste 15 Norte 0 -- -- 93
2017-07-31 07:00:00 24.5 5 Nordeste 12 Nordeste 0 -- -- 97
2017-07-31 06:00:00 24.6 6 Norte 13 Nordeste 0 -- -- 97
2017-07-31 05:00:00 24.8 9 Sur 18 Sudeste 0 -- -- 97
2017-07-31 04:00:00 24.7 14 Sudeste 21 Sudeste 0 -- -- 97
2017-07-31 03:00:00 25 15 Sudeste 22 Sur 0 -- -- 98
2017-07-31 02:00:00 25.2 19 Sudeste 24 Sur 0 -- -- 98
2017-07-31 01:00:00 25.2 19 Sudeste 22 Sudeste 0 -- -- 98
2017-07-31 00:00:00 25.2 18 Sur 21 Sudeste 0 -- -- 98
2017-07-30 23:00:00 25.3 17 Sudeste 23 Sudeste 0 -- -- 98
2017-07-30 22:00:00 25.4 19 Sudeste 22 Sudeste 0 -- -- 97
2017-07-30 21:00:00 25.9 15 Sudeste 18 Sudeste 0 -- -- 97
2017-07-30 20:00:00 26.3 12 Sudeste 14 Sudeste 0 -- -- 95
2017-07-30 19:00:00 27 14 Sudeste 18 Sudeste 0 -- -- 92
2017-07-30 18:00:00 28.1 15 Sudeste 18 Sudeste 0 -- -- 87
2017-07-30 17:00:00 29.2 15 Sudeste 20 Sur 0 -- -- 82
2017-07-30 16:00:00 29.6 18 Sudeste 22 Sudeste 0 -- -- 80
2017-07-30 15:00:00 29.4 18 Sudeste 22 Sudeste 0 -- -- 79
2017-07-30 14:00:00 29.8 18 Sudeste 21 Sudeste 0 -- -- 77
2017-07-30 13:00:00 29.4 18 Sudeste 22 Sudeste 0 -- -- 77
2017-07-30 12:00:00 29.4 15 Sudeste 18 Sur 0 -- -- 78
2017-07-30 11:00:00 28.4 9 Sudeste 13 Sudeste 0 -- -- 78
2017-07-30 10:00:00 27.5 3 Este 9 Nordeste 0 -- -- 84
2017-07-30 09:00:00 26.6 4 Norte 7 Norte 0 -- -- 93
2017-07-30 08:00:00 25.5 3 Nordeste 5 Nordeste 0 -- -- 97
2017-07-30 07:00:00 24 0 Calma -- -- 0 -- -- 98
2017-07-30 06:00:00 24.3 0 Calma 4 Nordeste 0 -- -- 97
2017-07-30 05:00:00 23.9 0 Calma 9 Sur 0 -- -- 95
2017-07-30 04:00:00 24.1 6 Sur 13 Sur 0 -- -- 93
2017-07-30 03:00:00 24.2 11 Sur 18 Sudoeste 0 -- -- 97
2017-07-30 02:00:00 24.2 16 Sur 30 Sudoeste 0 -- -- 97
2017-07-30 01:00:00 24.8 21 Sur 26 Sur 0 -- -- 97
2017-07-30 00:00:00 24.8 18 Sur 22 Sur 0 -- -- 97
2017-07-29 23:00:00 25.2 15 Sur 21 Sur 0 -- -- 95
2017-07-29 22:00:00 25.5 17 Sur 27 Sudeste 0 -- -- 93
2017-07-29 21:00:00 25.6 24 Sudeste 28 Sudeste 0 -- -- 92
2017-07-29 20:00:00 26.1 16 Sudeste 20 Sudeste 0 -- -- 90
2017-07-29 19:00:00 26.6 18 Sudeste 23 Sur 0 -- -- 89
2017-07-29 18:00:00 27.6 19 Sur 26 Sur 0 -- -- 84
2017-07-29 17:00:00 28.7 19 Sudeste 23 Sudeste 0 -- -- 78
2017-07-29 16:00:00 28.4 14 Sudeste 17 Sudeste 0 -- -- 77
2017-07-29 15:00:00 30 14 Sudeste 19 Sudeste 0 -- -- 70
2017-07-29 14:00:00 30.6 13 Sudeste 16 Sudeste 0 -- -- 69
2017-07-29 13:00:00 30.4 13 Sur 19 Sur 0 -- -- 70
2017-07-29 12:00:00 29.8 14 Sur 19 Sur 0 -- -- 76
2017-07-29 11:00:00 28.5 15 Sur 19 Sur 0 -- -- 82
2017-07-29 10:00:00 27.7 10 Sur 13 Sur 0 -- -- 87
2017-07-29 09:00:00 27 8 Sudeste 12 Sudeste 0 -- -- 91
2017-07-29 08:00:00 25.4 10 Sudeste 15 Sudeste 0 -- -- 96
2017-07-29 07:00:00 24.2 8 Sur 13 Sudeste 0 -- -- 96
2017-07-29 06:00:00 24.1 8 Sur 9 Sudeste 0 -- -- 94
2017-07-29 05:00:00 24.3 0 Calma -- -- 0 -- -- 85
2017-07-29 04:00:00 24.5 0 Calma 6 Oeste 0 -- -- 82
2017-07-29 03:00:00 24.2 7 Oeste 22 Sudoeste 0 -- -- 89
2017-07-29 02:00:00 24.2 11 Sur 15 Sur 0 -- -- 92
2017-07-29 01:00:00 24.4 14 Sur 19 Sur 0 -- -- 92
2017-07-29 00:00:00 25 16 Sur 20 Sur 0 -- -- 92
2017-07-28 23:00:00 25.1 15 Sur 19 Sudeste 0 -- -- 92
2017-07-28 22:00:00 25.3 18 Sur 22 Sur 0 -- -- 92
2017-07-28 21:00:00 25.7 20 Sur 23 Sur 0 -- -- 92
2017-07-28 20:00:00 26.1 21 Sur 27 Sur 0 -- -- 90
2017-07-28 19:00:00 26.8 26 Sur 79 Sur 0 -- -- 86
2017-07-28 18:00:00 27.7 25 Sur 27 Sur 0 -- -- 74
2017-07-28 17:00:00 28.8 26 Sur 35 Sur 0 -- -- 74
2017-07-28 16:00:00 28 29 Sur 32 Sudeste 0 -- -- 79
2017-07-28 15:00:00 28.3 26 Sudeste 30 Sudeste 0 -- -- 82
2017-07-28 14:00:00 28.4 26 Sudeste 28 Sudeste 0 -- -- 79
2017-07-28 13:00:00 28.3 24 Sudeste 27 Sudeste 0 -- -- 80
2017-07-28 12:00:00 27.7 22 Sudeste 26 Sudeste 0 -- -- 85
2017-07-28 11:00:00 27.7 16 Sur 19 Sudeste 0 -- -- 84
2017-07-28 10:00:00 27.2 12 Sur 18 Sur 0 -- -- 87
2017-07-28 09:00:00 25.4 14 Sur 18 Sur 0 -- -- 94
2017-07-28 08:00:00 24 12 Sur 14 Sur 0 -- -- 97
2017-07-28 07:00:00 23.1 12 Sur 13 Sur 0 -- -- 98
2017-07-28 06:00:00 22.7 11 Sur 12 Sur 0 -- -- 97
2017-07-28 05:00:00 22.9 8 Sur 13 Sur 0 -- -- 97
2017-07-28 04:00:00 23.1 6 Sudoeste 16 Sudoeste 0 -- -- 96
2017-07-28 03:00:00 23.4 12 Sudoeste 16 Sudoeste 0 -- -- 95
2017-07-28 02:00:00 23.4 14 Sudoeste 22 Sur 0 -- -- 94
2017-07-28 01:00:00 23.6 17 Sur 18 Sur 0 -- -- 92
2017-07-28 00:00:00 24 14 Sudoeste 16 Sur 0 -- -- 84
2017-07-27 23:00:00 24.8 10 Sur 20 Sur 0 -- -- 81
2017-07-27 22:00:00 25.2 16 Sudoeste 32 Sur 0 -- -- 86
2017-07-27 21:00:00 25.5 24 Sur 34 Sur 0 -- -- 87
2017-07-27 20:00:00 26.6 24 Sur 39 Sur 0 -- -- 78
2017-07-27 19:00:00 26.4 24 Sur 57 Sur 0 -- -- 83
2017-07-27 18:00:00 26.6 29 Sur 44 Sur 0 -- -- 85
2017-07-27 17:00:00 27.7 18 Sur 52 Sur 0 -- -- 77
2017-07-27 16:00:00 26.9 32 Sur 57 Sur 0 -- -- 83
2017-07-27 15:00:00 26.7 32 Sur 45 Sur 0 -- -- 75
2017-07-27 14:00:00 26.5 24 Sur 38 Sur 0 -- -- 71
2017-07-27 13:00:00 26.8 24 Sur 37 Sudeste 0 -- -- 64
2017-07-27 12:00:00 28.5 28 Sur 33 Sur 0 -- -- 58
2017-07-27 11:00:00 28.3 18 Sur 23 Sur 0 -- -- 61
2017-07-27 10:00:00 26.4 8 Sudeste 12 Sudeste 0 -- -- 67
2017-07-27 09:00:00 26.3 4 Sudeste 10 Oeste 0 -- -- 65
2017-07-27 08:00:00 24.9 8 Oeste 19 Sudoeste 0 -- -- 69
2017-07-27 07:00:00 21.5 12 Sudoeste 30 Sudoeste 0 -- -- 94
2017-07-27 06:00:00 21.6 12 Sudoeste 18 Sudoeste 0 -- -- 94
2017-07-27 05:00:00 22 13 Sudoeste 14 Sudoeste 0 -- -- 93
2017-07-27 04:00:00 21.9 6 Sudoeste 10 Sur 0 -- -- 92
2017-07-27 03:00:00 22.4 0 Calma 7 Sudeste 0 -- -- 91
2017-07-27 02:00:00 22.3 5 Sur 11 Sur 0 -- -- 89
2017-07-27 01:00:00 22.5 8 Sur 26 Sur 0 -- -- 88
2017-07-27 00:00:00 22.7 12 Sur 15 Sur 0 -- -- 85
2017-07-26 23:00:00 22.8 10 Sudeste 18 Sudeste 0 -- -- 83
2017-07-26 22:00:00 23.1 14 Sudeste 24 Sudeste 0 -- -- 82
2017-07-26 21:00:00 23.1 16 Sudeste 23 Sudeste 0 -- -- 82
2017-07-26 20:00:00 23.3 9 Sudeste 22 Sudeste 0 -- -- 83
2017-07-26 19:00:00 23.4 15 Sudeste 26 Este 0 -- -- 82
2017-07-26 18:00:00 23.7 19 Este 29 Este 0 -- -- 82
2017-07-26 17:00:00 24 14 Este 24 Sur 0 -- -- 82
2017-07-26 16:00:00 23.9 10 Este 23 Este 0 -- -- 83
2017-07-26 15:00:00 24.6 13 Este 25 Este 0 -- -- 80
2017-07-26 14:00:00 23.1 11 Este 26 Nordeste 0.2 -- -- 88
2017-07-26 13:00:00 22 16 Nordeste 27 Sur 0.5 -- -- 97
2017-07-26 12:00:00 23.7 13 Norte 20 Norte 0.1 -- -- 88
2017-07-26 11:00:00 25.1 12 Nordeste 18 Norte 0 -- -- 74
2017-07-26 10:00:00 24.2 17 Norte 25 Norte 0 -- -- 82
2017-07-26 09:00:00 23.6 8 Sudoeste 15 Sudoeste 0 -- -- 72
2017-07-26 08:00:00 23.9 7 Sudoeste 18 Sudoeste 0 -- -- 74
2017-07-26 07:00:00 21.8 15 Sudoeste 19 Sudoeste 0 -- -- 77
2017-07-26 06:00:00 22.1 15 Sudoeste 20 Sudoeste 0 -- -- 77
2017-07-26 05:00:00 22 14 Sudoeste 19 Sudoeste 0 -- -- 77
2017-07-26 04:00:00 22 14 Sudoeste 19 Sudoeste 0 -- -- 74
2017-07-26 03:00:00 22.4 14 Sudoeste 16 Sudoeste 0 -- -- 72
2017-07-26 02:00:00 22.8 6 Sur 9 Sur 0 -- -- 70
2017-07-26 01:00:00 23.3 0 Calma 15 Este 0 -- -- 68
2017-07-26 00:00:00 23.5 8 Sudeste 17 Este 0 -- -- 67
2017-07-25 23:00:00 23.5 5 Este 16 Nordeste 0 -- -- 66
2017-07-25 22:00:00 23.5 14 Nordeste 19 Nordeste 0 -- -- 68
2017-07-25 21:00:00 23.7 14 Nordeste 21 Nordeste 0 -- -- 68
2017-07-25 20:00:00 24 15 Nordeste 24 Nordeste 0 -- -- 68
2017-07-25 19:00:00 24.2 19 Nordeste 27 Nordeste 0 -- -- 67
2017-07-25 18:00:00 24.6 21 Nordeste 33 Nordeste 0 -- -- 63
2017-07-25 17:00:00 24.8 27 Nordeste 37 Norte 0 -- -- 63
2017-07-25 16:00:00 24.8 32 Norte 44 Norte 0 -- -- 61
2017-07-25 15:00:00 25.4 36 Nordeste 48 Norte 0 -- -- 57
2017-07-25 14:00:00 25.7 40 Nordeste 47 Nordeste 0 -- -- 53
2017-07-25 13:00:00 25.8 35 Nordeste 45 Nordeste 0 -- -- 56
2017-07-25 12:00:00 25.4 39 Nordeste 49 Norte 0 -- -- 58
2017-07-25 11:00:00 24.8 37 Norte 45 Norte 0 -- -- 59
2017-07-25 10:00:00 24.8 37 Norte 44 Nordeste 0 -- -- 62
2017-07-25 09:00:00 24.1 35 Nordeste 47 Nordeste 0 -- -- 64
2017-07-25 08:00:00 23.4 40 Nordeste 47 Nordeste 0 -- -- 70
2017-07-25 07:00:00 23.2 39 Nordeste 47 Norte 0 -- -- 71
2017-07-25 06:00:00 23 36 Nordeste 45 Nordeste 0 -- -- 71
2017-07-25 05:00:00 22.5 33 Nordeste 44 Nordeste 0.1 -- -- 82
2017-07-25 04:00:00 22.8 38 Nordeste 44 Nordeste 0.2 -- -- 89
2017-07-25 03:00:00 24.1 20 Este 40 Este 0 -- -- 87
2017-07-25 02:00:00 24.7 9 Este 17 Este 0 -- -- 77
2017-07-25 01:00:00 24.8 6 Este 18 Sudeste 0 -- -- 75
2017-07-25 00:00:00 24.8 11 Este 19 Este 0 -- -- 82
2017-07-24 23:00:00 24.7 9 Este 19 Sudeste 0 -- -- 86
2017-07-24 22:00:00 24.7 6 Este 14 Este 0 -- -- 91
2017-07-24 21:00:00 24.9 6 Sudeste 11 Sudeste 0 -- -- 88
2017-07-24 20:00:00 25.1 5 Este 15 Nordeste 0 -- -- 86
2017-07-24 19:00:00 25.2 12 Nordeste 17 Nordeste 0 -- -- 85
2017-07-24 18:00:00 26 7 Este 18 Sudeste 0 -- -- 82
2017-07-24 17:00:00 26.5 10 Este 20 Sudeste 0 -- -- 77
2017-07-24 16:00:00 28.2 18 Sudeste 22 Sudeste 0 -- -- 71
2017-07-24 15:00:00 27.7 17 Sudeste 22 Sur 0 -- -- 74
2017-07-24 14:00:00 27.3 14 Sudeste 23 Sudeste 0 -- -- 79
2017-07-24 13:00:00 24.2 14 Sudeste 21 Sudeste 1.8 -- -- 95
2017-07-24 12:00:00 27.1 10 Este 20 Sudeste 0 -- -- 72
2017-07-24 11:00:00 27.1 13 Sudeste 16 Sudeste 0 -- -- 71
2017-07-24 10:00:00 26.6 6 Nordeste 13 Nordeste 0 -- -- 73
2017-07-24 09:00:00 25.8 9 Nordeste 14 Norte 0 -- -- 77
2017-07-24 08:00:00 25.3 9 Norte 17 Norte 0 -- -- 85
2017-07-24 07:00:00 23.5 13 Norte 16 Norte 0 -- -- 95
2017-07-24 06:00:00 23.4 8 Norte 20 Norte 0 -- -- 95
2017-07-24 05:00:00 23.7 19 Norte 28 Norte 0 -- -- 95
2017-07-24 04:00:00 24 19 Norte 23 Norte 0 -- -- 95
2017-07-24 03:00:00 24 18 Norte 27 Norte 0 -- -- 96
2017-07-24 02:00:00 24 13 Norte 19 Noroeste 0 -- -- 96
2017-07-24 01:00:00 24 10 Norte 13 Norte 0 -- -- 96
2017-07-24 00:00:00 24 4 Sudoeste 14 Sur 0 -- -- 95
2017-07-23 23:00:00 24.5 9 Sur 20 Sudeste 0 -- -- 95
2017-07-23 22:00:00 24.6 5 Este 26 Sudeste 0 -- -- 95
2017-07-23 21:00:00 24.6 17 Norte 28 Norte 0 -- -- 95
2017-07-23 20:00:00 25.4 23 Norte 27 Norte 0 -- -- 94
2017-07-23 19:00:00 25.8 13 Norte 20 Nordeste 0 -- -- 90
2017-07-23 18:00:00 26.3 13 Nordeste 18 Nordeste 0 -- -- 86
2017-07-23 17:00:00 27.3 6 Sudeste 18 Sur 0 -- -- 79
2017-07-23 16:00:00 26.6 12 Este 26 Sudoeste 0 -- -- 88
2017-07-23 15:00:00 26.3 21 Sudeste 30 Sudeste 0 -- -- 88
2017-07-23 14:00:00 26.8 9 Sudeste 26 Sudoeste 0 -- -- 83
2017-07-23 13:00:00 26 10 Este 21 Sur 0 -- -- 85
2017-07-23 12:00:00 26 15 Este 28 Sudeste 0 -- -- 87
2017-07-23 11:00:00 26.8 9 Nordeste 21 Nordeste 0 -- -- 84
2017-07-23 10:00:00 25.9 14 Nordeste 22 Nordeste 0 -- -- 87
2017-07-23 09:00:00 25.5 6 Este 18 Este 0 -- -- 92
2017-07-23 08:00:00 24.5 6 Este 13 Nordeste 0 -- -- 96
2017-07-23 07:00:00 24.3 10 Nordeste 24 Norte 0 -- -- 96
2017-07-23 06:00:00 24.4 22 Norte 37 Norte 0 -- -- 96
2017-07-23 05:00:00 24.5 23 Noroeste 30 Norte 0 -- -- 94
2017-07-23 04:00:00 24.3 17 Noroeste 25 Norte 0 -- -- 89
2017-07-23 03:00:00 23.9 9 Noroeste 13 Norte 0 -- -- 93
2017-07-23 02:00:00 24.1 8 Oeste 10 Oeste 0 -- -- 93
2017-07-23 01:00:00 24.4 9 Sudoeste 12 Sudoeste 0 -- -- 93
2017-07-23 00:00:00 24.9 12 Sudoeste 24 Sur 0 -- -- 92